createdAt,value
2023-03-25T00:00:23.939Z,78.65
2023-03-25T00:02:54.805Z,77.95
2023-03-25T00:05:25.274Z,77.25
2023-03-25T00:07:55.799Z,76.75
2023-03-25T00:10:25.957Z,78.82
2023-03-25T00:12:57.249Z,80.13
2023-03-25T00:15:27.505Z,81.63
2023-03-25T00:17:58.177Z,74.68
2023-03-25T00:20:29.583Z,78.15
2023-03-25T00:23:00.055Z,85.55
2023-03-25T00:25:30.245Z,80.32
2023-03-25T00:28:00.381Z,84.07
2023-03-25T00:30:30.684Z,74.60
2023-03-25T00:33:03.226Z,73.35
2023-03-25T00:35:34.627Z,69.68
2023-03-25T00:38:04.911Z,71.07
2023-03-25T00:40:38.421Z,68.63
2023-03-25T00:43:09.549Z,64.70
2023-03-25T00:45:39.806Z,64.03
2023-03-25T00:48:10.397Z,69.15
2023-03-25T00:50:40.836Z,68.18
2023-03-25T00:53:11.878Z,62.53
2023-03-25T00:55:43.093Z,65.90
2023-03-25T00:58:13.445Z,64.05
2023-03-25T01:00:44.426Z,70.72
2023-03-25T01:03:15.262Z,58.30
2023-03-25T01:05:45.734Z,58.33
2023-03-25T01:08:16.553Z,60.55
2023-03-25T01:10:47.081Z,56.55
2023-03-25T01:13:18.161Z,57.90
2023-03-25T01:15:49.020Z,51.40
2023-03-25T01:18:19.803Z,53.75
2023-03-25T01:20:50.009Z,49.00
2023-03-25T01:23:20.815Z,51.42
2023-03-25T01:25:51.740Z,56.20
2023-03-25T01:28:22.270Z,53.83
2023-03-25T01:30:52.839Z,50.15
2023-03-25T01:33:23.706Z,52.22
2023-03-25T01:35:54.580Z,49.85
2023-03-25T01:38:25.092Z,48.63
2023-03-25T01:40:56.812Z,51.92
2023-03-25T01:43:27.287Z,52.67
2023-03-25T01:45:57.550Z,51.67
2023-03-25T01:48:34.604Z,48.75
2023-03-25T01:51:24.612Z,56.10
2023-03-25T01:53:55.271Z,52.83
2023-03-25T01:56:28.492Z,52.58
2023-03-25T01:58:59.255Z,48.25
2023-03-25T02:01:29.723Z,50.58
2023-03-25T02:04:04.611Z,52.35
2023-03-25T02:06:40.849Z,44.95
2023-03-25T02:09:13.559Z,44.83
2023-03-25T02:11:44.174Z,44.90
2023-03-25T02:14:19.882Z,48.20
2023-03-25T02:17:10.941Z,46.90
2023-03-25T02:20:10.679Z,44.40
2023-03-25T02:23:00.439Z,44.67
2023-03-25T02:25:50.400Z,49.30
2023-03-25T02:28:32.001Z,44.40
2023-03-25T02:31:26.953Z,45.55
2023-03-25T02:34:17.503Z,41.17
2023-03-25T02:37:07.137Z,42.97
2023-03-25T02:39:57.307Z,44.08
2023-03-25T02:42:37.596Z,42.35
2023-03-25T02:45:18.675Z,43.92
2023-03-25T02:47:52.210Z,41.75
2023-03-25T02:50:34.024Z,41.67
2023-03-25T02:53:10.248Z,42.38
2023-03-25T02:55:43.344Z,42.25
2023-03-25T02:58:16.050Z,41.95
2023-03-25T03:00:46.647Z,40.50
2023-03-25T03:03:18.005Z,41.60
2023-03-25T03:05:53.459Z,40.28
2023-03-25T03:08:43.616Z,43.35
2023-03-25T03:11:33.350Z,38.22
2023-03-25T03:14:23.117Z,41.72
2023-03-25T03:17:02.228Z,37.75
2023-03-25T03:19:47.834Z,38.53
2023-03-25T03:22:38.237Z,37.38
2023-03-25T03:25:28.059Z,39.42
2023-03-25T03:28:03.113Z,41.17
2023-03-25T03:30:53.539Z,39.28
2023-03-25T03:33:35.755Z,39.60
2023-03-25T03:36:16.827Z,39.17
2023-03-25T03:38:55.476Z,40.67
2023-03-25T03:41:28.733Z,40.40
2023-03-25T03:44:18.740Z,40.20
2023-03-25T03:46:56.134Z,37.88
2023-03-25T03:49:29.821Z,40.45
2023-03-25T03:52:08.045Z,42.47
2023-03-25T03:54:51.350Z,40.20
2023-03-25T03:57:38.947Z,37.83
2023-03-25T04:00:11.570Z,35.58
2023-03-25T04:02:51.134Z,36.30
2023-03-25T04:05:22.653Z,42.58
2023-03-25T04:08:00.363Z,42.83
2023-03-25T04:10:40.878Z,35.28
2023-03-25T04:13:13.384Z,44.38
2023-03-25T04:15:44.486Z,37.78
2023-03-25T04:18:15.049Z,36.70
2023-03-25T04:20:46.527Z,40.58
2023-03-25T04:23:22.207Z,37.63
2023-03-25T04:25:54.729Z,40.50
2023-03-25T04:28:28.477Z,36.92
2023-03-25T04:31:02.206Z,34.40
2023-03-25T04:33:33.443Z,35.95
2023-03-25T04:36:03.819Z,32.95
2023-03-25T04:38:34.030Z,42.50
2023-03-25T04:41:08.470Z,34.03
2023-03-25T04:43:40.802Z,36.13
2023-03-25T04:46:13.530Z,32.38
2023-03-25T04:48:46.663Z,31.33
2023-03-25T04:51:17.659Z,32.67
2023-03-25T04:53:48.048Z,29.58
2023-03-25T04:56:19.954Z,30.92
2023-03-25T04:58:50.417Z,30.63
2023-03-25T05:01:34.300Z,31.40
2023-03-25T05:04:09.361Z,31.40
2023-03-25T05:06:41.161Z,28.73
2023-03-25T05:09:12.952Z,29.27
2023-03-25T05:11:43.475Z,29.00
2023-03-25T05:14:15.029Z,30.70
2023-03-25T05:16:45.772Z,30.25
2023-03-25T05:19:17.105Z,31.02
2023-03-25T05:21:47.760Z,42.38
2023-03-25T05:24:18.385Z,45.70
2023-03-25T05:26:48.776Z,41.75
2023-03-25T05:29:19.837Z,31.60
2023-03-25T05:31:50.347Z,29.27
2023-03-25T05:34:22.369Z,28.67
2023-03-25T05:36:52.596Z,31.48
2023-03-25T05:39:23.099Z,29.75
2023-03-25T05:41:57.088Z,29.95
2023-03-25T05:44:27.848Z,31.77
2023-03-25T05:46:59.332Z,29.48
2023-03-25T05:49:31.347Z,26.85
2023-03-25T05:52:01.547Z,25.85
2023-03-25T05:54:32.352Z,26.08
2023-03-25T05:57:02.974Z,25.10
2023-03-25T05:59:34.928Z,26.83
2023-03-25T06:02:05.532Z,26.25
2023-03-25T06:04:39.544Z,26.05
2023-03-25T06:07:15.455Z,24.60
2023-03-25T06:09:47.684Z,24.98
2023-03-25T06:12:22.584Z,23.73
2023-03-25T06:14:55.594Z,23.60
2023-03-25T06:17:26.557Z,23.00
2023-03-25T06:19:57.215Z,22.80
2023-03-25T06:22:28.952Z,23.33
2023-03-25T06:25:00.351Z,22.55
2023-03-25T06:27:35.773Z,24.05
2023-03-25T06:30:06.467Z,26.83
2023-03-25T06:32:36.600Z,21.77
2023-03-25T06:35:08.761Z,21.42
2023-03-25T06:37:39.458Z,28.23
2023-03-25T06:40:16.589Z,23.10
2023-03-25T06:42:47.706Z,23.00
2023-03-25T06:45:38.108Z,23.27
2023-03-25T06:48:15.558Z,22.70
2023-03-25T06:50:47.240Z,31.40
2023-03-25T06:53:17.807Z,24.13
2023-03-25T06:55:49.084Z,24.77
2023-03-25T06:58:19.445Z,23.75
2023-03-25T07:00:49.522Z,24.13
2023-03-25T07:03:19.971Z,23.02
2023-03-25T07:05:51.443Z,23.00
2023-03-25T07:08:22.039Z,22.95
2023-03-25T07:10:52.330Z,22.92
2023-03-25T07:13:22.602Z,22.17
2023-03-25T07:15:53.300Z,23.27
2023-03-25T07:18:23.998Z,22.98
2023-03-25T07:20:54.408Z,22.05
2023-03-25T07:23:25.073Z,22.80
2023-03-25T07:25:55.330Z,25.35
2023-03-25T07:28:26.018Z,22.02
2023-03-25T07:30:56.976Z,22.15
2023-03-25T07:33:27.836Z,23.02
2023-03-25T07:35:58.102Z,21.27
2023-03-25T07:38:29.387Z,21.25
2023-03-25T07:41:00.435Z,21.00
2023-03-25T07:43:32.029Z,20.98
2023-03-25T07:46:14.019Z,22.85
2023-03-25T07:48:44.586Z,20.85
2023-03-25T07:51:15.522Z,19.90
2023-03-25T07:53:47.921Z,20.30
2023-03-25T07:56:18.089Z,20.85
2023-03-25T07:58:49.202Z,22.08
2023-03-25T08:01:19.356Z,23.40
2023-03-25T08:03:50.220Z,18.10
2023-03-25T08:06:20.489Z,20.08
2023-03-25T08:08:50.965Z,19.55
2023-03-25T08:11:21.232Z,23.55
2023-03-25T08:13:52.061Z,18.92
2023-03-25T08:16:22.322Z,20.30
2023-03-25T08:18:54.519Z,21.45
2023-03-25T08:21:29.011Z,19.15
2023-03-25T08:24:06.267Z,20.13
2023-03-25T08:26:37.170Z,17.52
2023-03-25T08:29:09.192Z,18.52
2023-03-25T08:31:40.358Z,18.63
2023-03-25T08:34:11.043Z,21.02
2023-03-25T08:36:41.312Z,18.15
2023-03-25T08:39:13.166Z,19.30
2023-03-25T08:41:43.485Z,18.20
2023-03-25T08:44:14.395Z,19.88
2023-03-25T08:46:45.192Z,17.25
2023-03-25T08:49:15.387Z,18.58
2023-03-25T08:51:45.982Z,18.52
2023-03-25T08:54:16.164Z,17.92
2023-03-25T08:56:46.914Z,22.45
2023-03-25T08:59:17.132Z,20.20
2023-03-25T09:01:47.903Z,18.70
2023-03-25T09:04:19.322Z,19.30
2023-03-25T09:07:10.466Z,19.77
2023-03-25T09:09:41.376Z,20.00
2023-03-25T09:12:12.207Z,22.23
2023-03-25T09:14:42.965Z,18.75
2023-03-25T09:17:13.121Z,21.67
2023-03-25T09:19:43.981Z,20.83
2023-03-25T09:22:14.262Z,19.85
2023-03-25T09:24:44.459Z,20.40
2023-03-25T09:27:14.945Z,20.17
2023-03-25T09:29:45.100Z,19.50
2023-03-25T09:32:16.554Z,21.23
2023-03-25T09:34:47.297Z,20.77
2023-03-25T09:37:17.880Z,23.83
2023-03-25T09:39:48.138Z,21.63
2023-03-25T09:42:38.984Z,22.65
2023-03-25T09:45:29.148Z,19.75
2023-03-25T09:48:18.873Z,19.10
2023-03-25T09:50:49.645Z,21.98
2023-03-25T09:53:31.904Z,23.20
2023-03-25T09:56:03.100Z,20.55
2023-03-25T09:58:39.383Z,19.73
2023-03-25T10:01:29.431Z,24.05
2023-03-25T10:04:12.663Z,23.23
2023-03-25T10:06:50.950Z,25.38
2023-03-25T10:09:30.558Z,22.13
2023-03-25T10:12:20.383Z,21.77
2023-03-25T10:15:10.623Z,21.17
2023-03-25T10:18:01.022Z,23.08
2023-03-25T10:20:51.899Z,20.67
2023-03-25T10:23:36.186Z,23.08
2023-03-25T10:26:15.497Z,21.33
2023-03-25T10:28:49.110Z,21.95
2023-03-25T10:31:21.126Z,20.50
2023-03-25T10:33:57.720Z,20.10
2023-03-25T10:36:36.518Z,21.58
2023-03-25T10:39:09.371Z,21.63
2023-03-25T10:41:41.717Z,24.55
2023-03-25T10:44:13.495Z,24.83
2023-03-25T10:46:49.314Z,23.70
2023-03-25T10:49:26.731Z,28.83
2023-03-25T10:52:00.425Z,29.20
2023-03-25T10:54:39.252Z,33.35
2023-03-25T10:57:11.291Z,34.60
2023-03-25T10:59:46.932Z,37.85
2023-03-25T11:02:21.067Z,36.97
2023-03-25T11:04:53.435Z,38.30
2023-03-25T11:07:26.206Z,31.98
2023-03-25T11:09:58.509Z,30.40
2023-03-25T11:12:40.570Z,28.95
2023-03-25T11:15:22.004Z,30.98
2023-03-25T11:18:05.275Z,28.70
2023-03-25T11:20:41.615Z,37.13
2023-03-25T11:23:20.511Z,41.42
2023-03-25T11:25:51.210Z,35.13
2023-03-25T11:28:24.461Z,31.85
2023-03-25T11:31:14.631Z,31.38
2023-03-25T11:33:46.141Z,39.63
2023-03-25T11:36:34.525Z,36.38
2023-03-25T11:39:06.298Z,37.00
2023-03-25T11:41:37.874Z,36.47
2023-03-25T11:44:09.059Z,31.25
2023-03-25T11:46:44.196Z,32.00
2023-03-25T11:49:19.626Z,38.60
2023-03-25T11:51:51.853Z,34.10
2023-03-25T11:54:23.242Z,34.03
2023-03-25T11:56:53.886Z,43.65
2023-03-25T11:59:26.471Z,36.10
2023-03-25T12:02:04.665Z,40.58
2023-03-25T12:04:35.488Z,47.65
2023-03-25T12:07:13.444Z,48.47
2023-03-25T12:09:55.677Z,56.50
2023-03-25T12:12:45.478Z,49.13
2023-03-25T12:15:35.277Z,57.95
2023-03-25T12:18:25.648Z,58.33
2023-03-25T12:21:15.868Z,70.72
2023-03-25T12:24:06.889Z,78.93
2023-03-25T12:26:56.693Z,83.50
2023-03-25T12:29:38.189Z,74.47
2023-03-25T12:32:28.312Z,69.10
2023-03-25T12:35:18.224Z,51.58
2023-03-25T12:37:59.056Z,51.35
2023-03-25T12:40:44.513Z,70.35
2023-03-25T12:43:34.613Z,60.88
2023-03-25T12:46:19.716Z,57.63
2023-03-25T12:49:00.384Z,50.28
2023-03-25T12:51:46.047Z,53.42
2023-03-25T12:54:35.748Z,48.30
2023-03-25T12:57:14.893Z,51.13
2023-03-25T12:59:51.152Z,46.15
2023-03-25T13:02:40.959Z,44.30
2023-03-25T13:05:30.726Z,48.33
2023-03-25T13:08:04.929Z,54.10
2023-03-25T13:10:37.212Z,48.88
2023-03-25T13:13:12.134Z,54.03
2023-03-25T13:15:46.891Z,61.67
2023-03-25T13:18:37.248Z,87.80
2023-03-25T13:21:27.040Z,61.85
2023-03-25T13:24:06.891Z,60.42
2023-03-25T13:26:38.183Z,63.38
2023-03-25T13:29:32.179Z,68.28
2023-03-25T13:32:06.423Z,63.35
2023-03-25T13:34:56.087Z,60.95
2023-03-25T13:37:37.513Z,62.67
2023-03-25T13:40:27.255Z,59.63
2023-03-25T13:43:17.449Z,53.08
2023-03-25T13:45:54.428Z,55.92
2023-03-25T13:48:31.121Z,56.38
2023-03-25T13:51:04.853Z,56.83
2023-03-25T13:53:54.966Z,50.47
2023-03-25T13:56:44.711Z,49.63
2023-03-25T13:59:21.305Z,51.80
2023-03-25T14:01:58.446Z,53.22
2023-03-25T14:04:48.541Z,48.28
2023-03-25T14:07:38.401Z,43.30
2023-03-25T14:10:28.196Z,45.92
2023-03-25T14:13:04.481Z,44.25
2023-03-25T14:15:39.384Z,49.15
2023-03-25T14:18:18.889Z,50.47
2023-03-25T14:20:49.939Z,47.50
2023-03-25T14:23:22.538Z,52.00
2023-03-25T14:26:01.533Z,53.38
2023-03-25T14:28:39.222Z,43.10
2023-03-25T14:31:12.922Z,44.70
2023-03-25T14:34:03.729Z,48.17
2023-03-25T14:36:53.470Z,46.83
2023-03-25T14:39:44.329Z,39.08
2023-03-25T14:42:26.369Z,36.72
2023-03-25T14:44:56.605Z,39.80
2023-03-25T14:47:35.300Z,45.55
2023-03-25T14:50:25.112Z,41.35
2023-03-25T14:53:00.413Z,42.70
2023-03-25T14:55:32.379Z,45.25
2023-03-25T14:58:22.074Z,53.95
2023-03-25T15:01:01.215Z,55.95
2023-03-25T15:03:44.378Z,46.22
2023-03-25T15:06:18.315Z,45.63
2023-03-25T15:08:56.606Z,36.28
2023-03-25T15:11:35.076Z,35.20
2023-03-25T15:14:14.294Z,44.53
2023-03-25T15:17:04.383Z,37.00
2023-03-25T15:19:54.163Z,36.97
2023-03-25T15:22:25.524Z,40.47
2023-03-25T15:24:58.198Z,33.25
2023-03-25T15:27:43.848Z,38.72
2023-03-25T15:30:33.640Z,37.42
2023-03-25T15:33:24.481Z,56.00
2023-03-25T15:36:14.196Z,56.42
2023-03-25T15:39:04.526Z,60.78
2023-03-25T15:41:54.233Z,59.97
2023-03-25T15:44:38.385Z,57.70
2023-03-25T15:47:28.440Z,55.15
2023-03-25T15:50:09.626Z,58.97
2023-03-25T15:52:59.324Z,54.25
2023-03-25T15:55:32.965Z,52.72
2023-03-25T15:58:08.244Z,48.15
2023-03-25T16:00:44.600Z,58.72
2023-03-25T16:03:17.533Z,50.85
2023-03-25T16:05:50.118Z,46.28
2023-03-25T16:08:39.796Z,42.58
2023-03-25T16:11:17.699Z,35.63
2023-03-25T16:13:48.447Z,39.22
2023-03-25T16:16:19.779Z,39.55
2023-03-25T16:18:50.429Z,34.75
2023-03-25T16:21:22.569Z,37.67
2023-03-25T16:23:55.518Z,40.08
2023-03-25T16:26:45.198Z,40.70
2023-03-25T16:29:23.055Z,48.40
2023-03-25T16:31:58.038Z,42.20
2023-03-25T16:34:29.313Z,45.53
2023-03-25T16:36:59.901Z,47.63
2023-03-25T16:39:30.291Z,39.22
2023-03-25T16:42:08.572Z,41.67
2023-03-25T16:44:39.361Z,47.95
2023-03-25T16:47:09.997Z,44.10
2023-03-25T16:49:40.937Z,49.50
2023-03-25T16:52:15.708Z,48.10
2023-03-25T16:54:48.818Z,42.47
2023-03-25T16:57:29.276Z,44.55
2023-03-25T17:00:07.505Z,41.40
2023-03-25T17:02:44.924Z,45.88
2023-03-25T17:05:35.080Z,42.22
2023-03-25T17:08:08.583Z,44.33
2023-03-25T17:10:58.369Z,43.22
2023-03-25T17:13:31.063Z,49.55
2023-03-25T17:16:01.793Z,48.00
2023-03-25T17:18:34.014Z,40.85
2023-03-25T17:21:04.255Z,44.72
2023-03-25T17:23:39.322Z,44.25
2023-03-25T17:26:11.807Z,41.55
2023-03-25T17:28:44.728Z,45.58
2023-03-25T17:31:35.228Z,42.22
2023-03-25T17:34:09.755Z,42.40
2023-03-25T17:36:46.779Z,42.00
2023-03-25T17:39:27.768Z,44.78
2023-03-25T17:42:03.138Z,43.00
2023-03-25T17:44:46.032Z,45.10
2023-03-25T17:47:20.649Z,46.55
2023-03-25T17:49:50.887Z,42.63
2023-03-25T17:52:21.851Z,41.25
2023-03-25T17:54:53.035Z,43.28
2023-03-25T17:57:23.457Z,47.72
2023-03-25T17:59:57.254Z,45.75
2023-03-25T18:02:27.383Z,45.13
2023-03-25T18:04:57.371Z,43.25
2023-03-25T18:07:27.617Z,44.58
2023-03-25T18:09:57.797Z,46.70
2023-03-25T18:12:28.655Z,43.13
2023-03-25T18:14:58.850Z,45.03
2023-03-25T18:17:28.926Z,46.65
2023-03-25T18:19:59.205Z,45.33
2023-03-25T18:22:29.782Z,49.55
2023-03-25T18:25:00.214Z,43.38
2023-03-25T18:27:40.561Z,51.95
2023-03-25T18:30:33.446Z,45.78
2023-03-25T18:33:03.662Z,47.50
2023-03-25T18:35:34.609Z,48.00
2023-03-25T18:38:06.008Z,45.92
2023-03-25T18:40:37.574Z,46.72
2023-03-25T18:43:07.787Z,46.25
2023-03-25T18:45:39.065Z,47.85
2023-03-25T18:48:09.434Z,47.83
2023-03-25T18:50:41.946Z,57.10
2023-03-25T18:53:12.102Z,79.10
2023-03-25T18:55:43.592Z,73.30
2023-03-25T18:58:21.199Z,64.93
2023-03-25T19:00:52.921Z,68.43
2023-03-25T19:03:42.295Z,65.28
2023-03-25T19:06:14.583Z,64.57
2023-03-25T19:08:45.647Z,58.53
2023-03-25T19:11:21.862Z,63.72
2023-03-25T19:13:53.294Z,57.00
2023-03-25T19:16:24.078Z,67.38
2023-03-25T19:18:54.612Z,64.63
2023-03-25T19:21:25.216Z,70.32
2023-03-25T19:23:55.598Z,60.67
2023-03-25T19:26:25.810Z,61.72
2023-03-25T19:28:56.281Z,57.20
2023-03-25T19:31:26.950Z,64.35
2023-03-25T19:33:57.181Z,56.75
2023-03-25T19:36:27.419Z,62.72
2023-03-25T19:39:00.224Z,58.35
2023-03-25T19:41:30.692Z,57.75
2023-03-25T19:44:00.921Z,59.30
2023-03-25T19:46:33.244Z,62.03
2023-03-25T19:49:03.960Z,57.42
2023-03-25T19:51:34.131Z,59.13
2023-03-25T19:54:04.344Z,54.88
2023-03-25T19:56:34.606Z,53.53
2023-03-25T19:59:05.041Z,57.90
2023-03-25T20:01:36.892Z,56.05
2023-03-25T20:04:07.241Z,56.13
2023-03-25T20:06:38.708Z,58.47
2023-03-25T20:09:09.623Z,55.90
2023-03-25T20:11:40.300Z,58.80
2023-03-25T20:14:10.899Z,56.58
2023-03-25T20:16:41.217Z,65.10
2023-03-25T20:19:11.371Z,63.33
2023-03-25T20:21:42.170Z,58.63
2023-03-25T20:24:12.685Z,61.03
2023-03-25T20:26:42.903Z,60.97
2023-03-25T20:29:13.096Z,59.88
2023-03-25T20:31:43.620Z,58.50
2023-03-25T20:34:13.982Z,56.05
2023-03-25T20:36:44.089Z,60.15
2023-03-25T20:39:15.206Z,59.45
2023-03-25T20:41:45.594Z,63.45
2023-03-25T20:44:16.022Z,65.38
2023-03-25T20:46:47.781Z,54.55
2023-03-25T20:49:20.486Z,56.40
2023-03-25T20:51:52.444Z,59.97
2023-03-25T20:54:23.147Z,58.75
2023-03-25T20:56:53.461Z,59.90
2023-03-25T20:59:24.540Z,60.92
2023-03-25T21:01:55.974Z,60.78
2023-03-25T21:04:26.897Z,65.68
2023-03-25T21:06:57.357Z,54.58
2023-03-25T21:09:28.334Z,57.38
2023-03-25T21:11:58.417Z,54.30
2023-03-25T21:14:29.065Z,56.17
2023-03-25T21:16:59.440Z,51.13
2023-03-25T21:19:29.849Z,51.58
2023-03-25T21:22:00.240Z,54.80
2023-03-25T21:24:30.475Z,52.10
2023-03-25T21:27:00.922Z,53.60
2023-03-25T21:29:31.844Z,58.25
2023-03-25T21:32:02.315Z,61.58
2023-03-25T21:34:33.330Z,50.05
2023-03-25T21:37:05.039Z,52.50
2023-03-25T21:39:35.275Z,56.60
2023-03-25T21:42:09.862Z,54.08
2023-03-25T21:44:42.286Z,55.15
2023-03-25T21:47:13.541Z,59.08
2023-03-25T21:49:43.881Z,51.95
2023-03-25T21:52:14.989Z,56.72
2023-03-25T21:54:45.770Z,55.58
2023-03-25T21:57:15.932Z,57.25
2023-03-25T21:59:46.370Z,53.35
2023-03-25T22:02:18.622Z,53.45
2023-03-25T22:04:48.674Z,54.05
2023-03-25T22:07:18.876Z,58.67
2023-03-25T22:09:49.769Z,58.92
2023-03-25T22:12:20.228Z,53.13
2023-03-25T22:14:50.908Z,55.25
2023-03-25T22:17:21.166Z,53.60
2023-03-25T22:19:52.145Z,61.15
2023-03-25T22:22:23.805Z,59.85
2023-03-25T22:24:54.222Z,53.30
2023-03-25T22:27:24.432Z,61.05
2023-03-25T22:29:54.894Z,62.80
2023-03-25T22:32:28.538Z,58.47
2023-03-25T22:34:59.079Z,56.72
2023-03-25T22:37:29.936Z,55.33
2023-03-25T22:40:00.384Z,60.78
2023-03-25T22:42:31.150Z,65.90
2023-03-25T22:45:01.643Z,76.63
2023-03-25T22:47:31.968Z,59.90
2023-03-25T22:50:02.676Z,61.20
2023-03-25T22:52:32.800Z,66.63
2023-03-25T22:55:03.486Z,58.83
2023-03-25T22:57:33.721Z,56.63
2023-03-25T23:00:04.164Z,66.35
2023-03-25T23:02:34.317Z,68.38
2023-03-25T23:05:04.508Z,64.38
2023-03-25T23:07:34.659Z,75.70
2023-03-25T23:10:05.740Z,84.95
2023-03-25T23:12:36.182Z,82.43
2023-03-25T23:15:06.468Z,81.72
2023-03-25T23:17:36.754Z,81.53
2023-03-25T23:20:10.104Z,81.40
2023-03-25T23:22:40.476Z,75.20
2023-03-25T23:25:11.434Z,69.63
2023-03-25T23:27:41.691Z,75.22
2023-03-25T23:30:11.943Z,72.47
2023-03-25T23:32:42.428Z,69.45
2023-03-25T23:35:20.372Z,78.68
2023-03-25T23:37:52.114Z,79.47
2023-03-25T23:40:23.909Z,75.78
2023-03-25T23:42:54.196Z,71.65
2023-03-25T23:45:31.774Z,71.93
2023-03-25T23:48:03.033Z,69.57
2023-03-25T23:50:33.406Z,72.82
2023-03-25T23:53:03.938Z,66.60
2023-03-25T23:55:34.827Z,65.55
2023-03-25T23:58:04.944Z,65.38
